createdAt,value
2022-10-25T00:01:21.322Z,21.80
2022-10-25T00:03:48.534Z,21.48
2022-10-25T00:06:16.082Z,21.23
2022-10-25T00:08:43.443Z,21.17
2022-10-25T00:11:23.067Z,21.63
2022-10-25T00:13:52.445Z,22.38
2022-10-25T00:16:23.079Z,24.85
2022-10-25T00:18:50.627Z,23.63
2022-10-25T00:21:18.206Z,22.70
2022-10-25T00:23:45.413Z,24.58
2022-10-25T00:26:12.871Z,24.33
2022-10-25T00:28:40.219Z,23.77
2022-10-25T00:31:10.478Z,29.27
2022-10-25T00:33:39.313Z,25.23
2022-10-25T00:36:08.581Z,23.27
2022-10-25T00:38:36.042Z,23.08
2022-10-25T00:41:04.142Z,27.85
2022-10-25T00:43:49.242Z,27.48
2022-10-25T00:46:24.088Z,25.77
2022-10-25T00:49:52.191Z,26.50
2022-10-25T00:53:01.346Z,22.50
2022-10-25T00:56:00.423Z,27.20
2022-10-25T00:58:36.619Z,25.98
2022-10-25T01:01:14.889Z,24.20
2022-10-25T01:04:07.774Z,24.27
2022-10-25T01:10:02.151Z,24.85
2022-10-25T01:12:52.963Z,26.02
2022-10-25T01:15:45.633Z,24.83
2022-10-25T01:19:13.565Z,26.67
2022-10-25T01:21:59.314Z,24.73
2022-10-25T01:24:58.098Z,25.77
2022-10-25T01:27:52.692Z,26.25
2022-10-25T01:30:20.008Z,32.65
2022-10-25T01:33:05.485Z,32.22
2022-10-25T01:35:49.186Z,28.50
2022-10-25T01:38:50.374Z,27.15
2022-10-25T01:41:57.706Z,31.50
2022-10-25T01:45:13.395Z,35.63
2022-10-25T01:48:23.600Z,26.27
2022-10-25T01:50:50.966Z,26.48
2022-10-25T01:53:18.436Z,31.58
2022-10-25T01:55:59.009Z,32.42
2022-10-25T01:58:34.722Z,28.40
2022-10-25T02:01:23.772Z,28.33
2022-10-25T02:04:02.175Z,30.92
2022-10-25T02:06:29.460Z,35.05
2022-10-25T02:09:02.342Z,30.85
2022-10-25T02:11:44.631Z,35.17
2022-10-25T02:14:40.596Z,39.95
2022-10-25T02:17:25.903Z,32.13
2022-10-25T02:20:01.610Z,36.72
2022-10-25T02:22:41.399Z,39.03
2022-10-25T02:25:13.210Z,47.67
2022-10-25T02:27:41.194Z,96.85
2022-10-25T02:30:09.542Z,213.30
2022-10-25T02:32:41.099Z,66.65
2022-10-25T02:35:16.108Z,48.45
2022-10-25T02:37:44.341Z,44.88
2022-10-25T02:40:14.178Z,179.18
2022-10-25T02:42:51.625Z,130.18
2022-10-25T02:45:22.081Z,98.13
2022-10-25T02:47:49.586Z,128.75
2022-10-25T02:50:16.928Z,54.20
2022-10-25T02:52:46.552Z,60.42
2022-10-25T02:55:14.072Z,34.63
2022-10-25T02:57:43.548Z,30.60
2022-10-25T03:02:43.659Z,26.83
2022-10-25T03:05:10.829Z,27.83
2022-10-25T03:07:38.156Z,25.52
2022-10-25T03:10:05.871Z,26.75
2022-10-25T03:12:33.196Z,25.60
2022-10-25T03:15:00.340Z,26.08
2022-10-25T03:17:27.570Z,24.95
2022-10-25T03:19:54.572Z,25.02
2022-10-25T03:22:22.029Z,25.77
2022-10-25T03:24:49.175Z,28.50
2022-10-25T03:27:18.044Z,25.80
2022-10-25T03:29:45.135Z,25.52
2022-10-25T03:32:12.388Z,32.40
2022-10-25T03:34:40.993Z,28.60
2022-10-25T03:37:08.215Z,27.75
2022-10-25T03:39:35.345Z,29.45
2022-10-25T03:42:02.831Z,28.67
2022-10-25T03:44:30.283Z,24.98
2022-10-25T03:46:57.246Z,31.05
2022-10-25T03:49:25.699Z,25.85
2022-10-25T03:51:57.037Z,24.45
2022-10-25T03:54:29.209Z,23.73
2022-10-25T03:56:56.646Z,23.13
2022-10-25T03:59:26.541Z,21.80
2022-10-25T04:01:54.279Z,23.30
2022-10-25T04:04:21.809Z,23.23
2022-10-25T04:06:48.965Z,22.52
2022-10-25T04:09:16.193Z,23.15
2022-10-25T04:11:43.758Z,30.30
2022-10-25T04:14:11.008Z,32.63
2022-10-25T04:16:38.380Z,21.52
2022-10-25T04:19:06.026Z,22.55
2022-10-25T04:21:33.422Z,21.83
2022-10-25T04:24:03.507Z,22.08
2022-10-25T04:26:36.395Z,22.98
2022-10-25T04:29:06.957Z,21.27
2022-10-25T04:31:34.773Z,20.02
2022-10-25T04:34:02.081Z,20.02
2022-10-25T04:36:30.405Z,26.25
2022-10-25T04:38:57.979Z,19.35
2022-10-25T04:41:32.156Z,19.67
2022-10-25T04:44:04.013Z,19.10
2022-10-25T04:46:31.488Z,18.42
2022-10-25T04:49:04.617Z,18.90
2022-10-25T04:51:38.476Z,18.45
2022-10-25T04:54:21.771Z,18.50
2022-10-25T04:57:10.607Z,18.48
2022-10-25T04:59:40.972Z,19.67
2022-10-25T05:02:08.370Z,18.88
2022-10-25T05:04:35.967Z,18.13
2022-10-25T05:07:03.578Z,16.65
2022-10-25T05:09:30.785Z,18.08
2022-10-25T05:12:14.165Z,18.92
2022-10-25T05:14:49.045Z,19.05
2022-10-25T05:17:16.347Z,18.60
2022-10-25T05:19:43.794Z,18.23
2022-10-25T05:22:11.180Z,19.40
2022-10-25T05:24:38.910Z,18.60
2022-10-25T05:27:06.846Z,15.82
2022-10-25T05:29:37.420Z,17.35
2022-10-25T05:32:08.408Z,19.98
2022-10-25T05:34:38.065Z,19.05
2022-10-25T05:37:05.311Z,18.35
2022-10-25T05:39:32.579Z,16.02
2022-10-25T05:42:00.532Z,15.45
2022-10-25T05:44:28.104Z,18.25
2022-10-25T05:46:55.966Z,18.55
2022-10-25T05:49:38.786Z,17.85
2022-10-25T05:52:14.349Z,17.58
2022-10-25T05:54:41.326Z,19.02
2022-10-25T05:57:08.401Z,17.67
2022-10-25T05:59:35.512Z,19.83
2022-10-25T06:02:02.460Z,17.35
2022-10-25T06:04:29.386Z,19.17
2022-10-25T06:06:56.329Z,19.83
2022-10-25T06:09:23.154Z,18.63
2022-10-25T06:11:49.939Z,16.83
2022-10-25T06:14:16.711Z,16.70
2022-10-25T06:16:51.090Z,18.33
2022-10-25T06:19:23.321Z,15.48
2022-10-25T06:22:02.333Z,17.40
2022-10-25T06:24:35.148Z,18.73
2022-10-25T06:27:04.896Z,21.88
2022-10-25T06:29:32.156Z,20.77
2022-10-25T06:31:59.428Z,29.27
2022-10-25T06:34:28.942Z,24.95
2022-10-25T06:36:55.882Z,30.60
2022-10-25T06:39:23.011Z,25.15
2022-10-25T06:42:51.482Z,20.88
2022-10-25T06:45:19.111Z,35.33
2022-10-25T06:47:46.831Z,36.83
2022-10-25T06:50:16.935Z,39.05
2022-10-25T06:52:44.377Z,44.00
2022-10-25T06:55:13.434Z,29.05
2022-10-25T06:57:40.675Z,24.38
2022-10-25T07:00:11.477Z,19.65
2022-10-25T07:02:41.250Z,25.08
2022-10-25T07:05:13.239Z,23.63
2022-10-25T07:07:46.636Z,19.17
2022-10-25T07:10:20.461Z,18.52
2022-10-25T07:12:47.763Z,15.50
2022-10-25T07:15:26.228Z,20.98
2022-10-25T07:18:06.479Z,25.00
2022-10-25T07:20:35.864Z,18.35
2022-10-25T07:23:08.715Z,14.27
2022-10-25T07:29:21.607Z,14.68
2022-10-25T07:32:12.883Z,12.73
2022-10-25T07:35:03.066Z,13.02
2022-10-25T07:37:30.730Z,13.52
2022-10-25T07:40:01.662Z,11.95
2022-10-25T07:42:40.919Z,11.75
2022-10-25T07:45:11.308Z,11.30
2022-10-25T07:47:40.228Z,11.75
2022-10-25T07:50:07.886Z,14.13
2022-10-25T07:52:38.048Z,12.13
2022-10-25T07:55:07.650Z,14.90
2022-10-25T07:57:34.669Z,11.75
2022-10-25T08:00:01.543Z,13.48
2022-10-25T08:02:31.249Z,14.15
2022-10-25T08:05:01.119Z,13.07
2022-10-25T08:07:31.623Z,13.43
2022-10-25T08:10:23.504Z,13.75
2022-10-25T08:12:51.936Z,11.93
2022-10-25T08:15:22.102Z,11.85
2022-10-25T08:17:56.855Z,12.55
2022-10-25T08:20:56.842Z,11.15
2022-10-25T08:30:16.233Z,11.32
2022-10-25T08:32:45.822Z,12.40
2022-10-25T08:35:22.431Z,11.88
2022-10-25T08:38:08.272Z,9.95
2022-10-25T08:41:06.811Z,10.50
2022-10-25T08:46:47.729Z,11.07
2022-10-25T08:49:54.282Z,9.85
2022-10-25T08:52:45.056Z,10.23
2022-10-25T08:55:25.274Z,9.07
2022-10-25T08:57:58.065Z,10.68
2022-10-25T09:00:36.942Z,11.13
2022-10-25T09:03:07.815Z,9.48
2022-10-25T09:06:10.386Z,9.95
2022-10-25T09:09:06.774Z,8.48
2022-10-25T09:12:39.184Z,8.50
2022-10-25T09:15:26.433Z,11.00
2022-10-25T09:17:59.355Z,8.52
2022-10-25T09:20:41.715Z,10.18
2022-10-25T09:23:35.338Z,9.65
2022-10-25T09:26:18.613Z,8.70
2022-10-25T09:32:37.306Z,8.50
2022-10-25T09:35:47.481Z,8.80
2022-10-25T09:38:42.395Z,8.85
2022-10-25T10:12:44.468Z,14.20
2022-10-25T10:15:26.553Z,8.88
2022-10-25T10:18:45.026Z,8.13
2022-10-25T10:21:35.868Z,7.47
2022-10-25T10:24:09.842Z,10.95
2022-10-25T10:26:46.621Z,7.65
2022-10-25T10:29:31.157Z,7.32
2022-10-25T10:32:07.728Z,10.30
2022-10-25T10:34:55.339Z,7.47
2022-10-25T10:37:34.879Z,7.72
2022-10-25T10:40:07.153Z,9.60
2022-10-25T10:42:54.739Z,13.52
2022-10-25T10:45:49.941Z,10.75
2022-10-25T10:48:23.224Z,10.02
2022-10-25T10:54:28.904Z,7.43
2022-10-25T10:57:07.897Z,11.40
2022-10-25T11:00:07.839Z,8.10
2022-10-25T11:02:42.165Z,8.15
2022-10-25T11:06:23.591Z,9.18
2022-10-25T11:09:42.566Z,9.52
2022-10-25T11:15:40.956Z,8.55
2022-10-25T11:29:09.322Z,10.52
2022-10-25T11:39:12.092Z,8.93
2022-10-25T11:45:56.752Z,8.57
2022-10-25T11:49:21.402Z,10.18
2022-10-25T11:52:22.633Z,9.13
2022-10-25T11:55:22.912Z,10.20
2022-10-25T12:41:36.579Z,13.10
2022-10-25T12:44:50.368Z,13.90
2022-10-25T12:48:42.446Z,11.30
2022-10-25T12:52:20.903Z,11.82
2022-10-25T12:55:06.185Z,10.85
2022-10-25T13:01:47.709Z,10.02
2022-10-25T13:04:42.505Z,12.30
2022-10-25T13:07:47.095Z,10.82
2022-10-25T13:14:00.175Z,9.82
2022-10-25T13:16:39.907Z,11.63
2022-10-25T13:19:57.724Z,13.82
2022-10-25T13:22:44.410Z,15.38
2022-10-25T13:29:19.982Z,16.90
2022-10-25T13:34:39.865Z,15.32
2022-10-25T13:37:41.747Z,13.60
2022-10-25T13:40:41.320Z,12.38
2022-10-25T13:43:22.006Z,12.70
2022-10-25T13:45:55.605Z,14.65
2022-10-25T13:48:51.823Z,11.27
2022-10-25T13:58:38.129Z,12.88
2022-10-25T14:01:56.587Z,20.55
2022-10-25T14:04:38.109Z,12.68
2022-10-25T14:07:47.119Z,14.10
2022-10-25T14:10:25.353Z,12.90
2022-10-25T14:12:57.523Z,13.18
2022-10-25T14:15:38.284Z,14.02
2022-10-25T14:18:17.909Z,14.93
2022-10-25T14:21:20.218Z,16.38
2022-10-25T14:24:01.990Z,23.55
2022-10-25T14:26:29.503Z,18.73
2022-10-25T14:29:21.478Z,18.63
2022-10-25T14:32:20.570Z,27.23
2022-10-25T14:34:54.579Z,22.95
2022-10-25T14:37:26.856Z,26.80
2022-10-25T14:45:02.350Z,24.45
2022-10-25T14:47:47.184Z,18.30
2022-10-25T14:50:45.797Z,16.52
2022-10-25T14:53:21.955Z,16.38
2022-10-25T14:55:55.542Z,17.60
2022-10-25T14:58:24.410Z,13.05
2022-10-25T15:00:58.947Z,15.45
2022-10-25T15:03:29.381Z,16.90
2022-10-25T15:05:59.153Z,19.70
2022-10-25T15:08:29.012Z,17.02
2022-10-25T15:11:04.293Z,18.02
2022-10-25T15:13:48.148Z,15.57
2022-10-25T15:16:30.028Z,15.52
2022-10-25T15:19:08.974Z,17.73
2022-10-25T15:22:10.833Z,16.55
2022-10-25T15:24:46.511Z,16.55
2022-10-25T15:27:28.051Z,16.60
2022-10-25T15:29:55.230Z,15.38
2022-10-25T15:32:27.745Z,15.88
2022-10-25T15:34:57.399Z,15.82
2022-10-25T15:37:26.842Z,17.08
2022-10-25T15:39:55.675Z,18.83
2022-10-25T15:42:25.437Z,25.80
2022-10-25T15:44:52.228Z,32.58
2022-10-25T15:47:33.324Z,55.47
2022-10-25T15:50:06.296Z,46.70
2022-10-25T15:52:33.292Z,30.10
2022-10-25T15:55:00.234Z,22.10
2022-10-25T15:57:27.537Z,19.88
2022-10-25T15:59:54.691Z,22.00
2022-10-25T16:02:31.940Z,21.45
2022-10-25T16:04:59.118Z,26.55
2022-10-25T16:07:26.342Z,19.38
2022-10-25T16:09:53.896Z,20.58
2022-10-25T16:12:26.325Z,18.67
2022-10-25T16:14:53.483Z,18.52
2022-10-25T16:17:20.408Z,18.45
2022-10-25T16:19:47.485Z,18.52
2022-10-25T16:22:14.404Z,21.17
2022-10-25T16:24:52.053Z,23.63
2022-10-25T16:27:22.636Z,21.58
2022-10-25T16:30:17.538Z,18.98
2022-10-25T16:32:58.592Z,21.52
2022-10-25T16:35:28.306Z,19.15
2022-10-25T16:37:55.658Z,17.92
2022-10-25T16:40:25.326Z,17.50
2022-10-25T16:42:52.796Z,19.23
2022-10-25T16:45:28.392Z,18.58
2022-10-25T16:51:13.003Z,19.42
2022-10-25T16:54:03.844Z,21.73
2022-10-25T16:56:30.959Z,19.20
2022-10-25T16:59:00.713Z,20.20
2022-10-25T17:01:36.413Z,22.13
2022-10-25T17:04:30.742Z,20.80
2022-10-25T17:06:57.964Z,20.95
2022-10-25T17:09:29.131Z,21.33
2022-10-25T17:11:56.494Z,20.63
2022-10-25T17:14:34.590Z,21.20
2022-10-25T17:17:10.247Z,19.38
2022-10-25T17:19:42.761Z,20.20
2022-10-25T17:22:10.178Z,19.95
2022-10-25T17:24:44.652Z,19.00
2022-10-25T17:27:14.329Z,19.30
2022-10-25T17:29:44.279Z,20.10
2022-10-25T17:32:13.931Z,20.38
2022-10-25T17:34:41.371Z,18.15
2022-10-25T17:37:09.571Z,21.17
2022-10-25T17:39:44.713Z,19.75
2022-10-25T17:44:50.989Z,20.83
2022-10-25T17:47:17.927Z,23.05
2022-10-25T17:49:44.947Z,23.17
2022-10-25T17:52:23.261Z,21.05
2022-10-25T17:54:50.818Z,19.30
2022-10-25T17:57:22.612Z,18.83
2022-10-25T18:02:26.746Z,18.73
2022-10-25T18:05:19.328Z,18.33
2022-10-25T18:07:51.655Z,17.65
2022-10-25T18:10:26.100Z,17.10
2022-10-25T18:12:53.634Z,17.17
2022-10-25T18:15:34.893Z,16.70
2022-10-25T18:18:08.060Z,18.73
2022-10-25T18:20:38.074Z,17.75
2022-10-25T18:23:07.208Z,17.48
2022-10-25T18:25:35.034Z,16.58
2022-10-25T18:28:11.709Z,16.58
2022-10-25T18:30:44.094Z,17.33
2022-10-25T18:33:18.988Z,16.45
2022-10-25T18:35:46.424Z,16.55
2022-10-25T18:38:17.071Z,18.00
2022-10-25T18:40:45.225Z,16.63
2022-10-25T18:43:12.422Z,17.98
2022-10-25T18:45:42.061Z,19.20
2022-10-25T18:48:15.001Z,18.60
2022-10-25T18:50:42.778Z,18.83
2022-10-25T18:53:09.970Z,19.52
2022-10-25T18:55:44.834Z,18.25
2022-10-25T18:58:19.578Z,18.55
2022-10-25T19:00:47.572Z,19.00
2022-10-25T19:03:17.324Z,18.85
2022-10-25T19:05:57.257Z,19.13
2022-10-25T19:08:24.936Z,19.45
2022-10-25T19:10:52.151Z,19.85
2022-10-25T19:13:19.952Z,19.92
2022-10-25T19:15:49.881Z,19.20
2022-10-25T19:19:36.653Z,20.95
2022-10-25T19:21:41.887Z,20.10
2022-10-25T19:24:18.646Z,19.35
2022-10-25T19:27:11.914Z,20.02
2022-10-25T19:29:44.595Z,19.85
2022-10-25T19:32:14.142Z,21.50
2022-10-25T19:34:57.276Z,20.30
2022-10-25T19:40:29.892Z,22.40
2022-10-25T19:43:16.766Z,22.02
2022-10-25T19:46:05.036Z,20.83
2022-10-25T19:48:50.464Z,20.15
2022-10-25T19:51:23.300Z,20.63
2022-10-25T19:54:01.859Z,20.98
2022-10-25T19:56:29.106Z,22.88
2022-10-25T19:59:04.641Z,22.63
2022-10-25T20:01:36.285Z,23.73
2022-10-25T20:04:03.675Z,22.90
2022-10-25T20:06:46.373Z,24.70
2022-10-25T20:09:27.205Z,25.20
2022-10-25T20:12:21.672Z,23.60
2022-10-25T20:14:51.711Z,22.70
2022-10-25T20:17:18.681Z,22.88
2022-10-25T20:19:48.476Z,22.13
2022-10-25T20:22:17.202Z,22.83
2022-10-25T20:25:00.124Z,24.27
2022-10-25T20:27:35.911Z,21.45
2022-10-25T20:48:24.243Z,18.40
2022-10-25T20:51:05.347Z,17.92
2022-10-25T21:07:16.380Z,17.30
2022-10-25T21:09:49.262Z,17.25
2022-10-25T21:12:19.919Z,16.50
2022-10-25T21:14:59.449Z,17.95
2022-10-25T21:17:51.105Z,16.35
2022-10-25T21:20:21.367Z,16.45
2022-10-25T21:22:48.605Z,16.73
2022-10-25T21:25:18.522Z,16.45
2022-10-25T21:27:54.649Z,15.20
2022-10-25T21:30:25.210Z,16.50
2022-10-25T21:32:54.081Z,15.98
2022-10-25T21:35:21.641Z,16.65
2022-10-25T21:37:53.367Z,16.27
2022-10-25T21:40:22.980Z,17.48
2022-10-25T21:42:50.297Z,17.67
2022-10-25T21:45:17.496Z,16.58
2022-10-25T21:47:44.472Z,16.23
2022-10-25T21:50:16.366Z,14.85
2022-10-25T21:52:53.344Z,15.90
2022-10-25T21:55:20.666Z,15.68
2022-10-25T21:57:50.543Z,17.95
2022-10-25T22:00:26.545Z,15.50
2022-10-25T22:03:00.380Z,15.40
2022-10-25T22:06:11.902Z,15.30
2022-10-25T22:08:39.296Z,19.88
2022-10-25T22:11:32.292Z,15.45
2022-10-25T22:14:02.186Z,14.55
2022-10-25T22:16:36.231Z,15.15
2022-10-25T22:19:13.150Z,14.05
2022-10-25T22:21:44.316Z,13.45
2022-10-25T22:24:31.437Z,11.95
2022-10-25T22:27:01.298Z,11.63
2022-10-25T22:29:28.531Z,11.38
2022-10-25T22:31:58.811Z,10.88
2022-10-25T22:34:31.492Z,9.85
2022-10-25T22:37:01.460Z,10.48
2022-10-25T22:39:37.522Z,10.30
2022-10-25T22:42:11.864Z,9.50
2022-10-25T22:44:40.063Z,8.68
2022-10-25T22:47:08.470Z,8.82
2022-10-25T22:49:48.506Z,8.18
2022-10-25T22:52:25.107Z,8.18
2022-10-25T22:54:53.875Z,8.70
2022-10-25T22:57:21.605Z,9.30
2022-10-25T22:59:48.621Z,10.05
2022-10-25T23:02:18.368Z,9.63
2022-10-25T23:04:45.567Z,9.90
2022-10-25T23:07:12.984Z,9.95
2022-10-25T23:09:42.788Z,10.07
2022-10-25T23:12:10.332Z,9.93
2022-10-25T23:14:37.322Z,10.25
2022-10-25T23:17:04.192Z,12.75
2022-10-25T23:19:31.162Z,11.88
2022-10-25T23:21:58.008Z,11.00
2022-10-25T23:24:24.890Z,10.18
2022-10-25T23:26:51.699Z,9.98
2022-10-25T23:29:18.996Z,8.85
2022-10-25T23:31:45.905Z,7.78
2022-10-25T23:34:12.850Z,8.18
2022-10-25T23:36:39.974Z,9.85
2022-10-25T23:39:07.506Z,7.68
2022-10-25T23:41:34.948Z,7.63
2022-10-25T23:44:02.126Z,8.35
2022-10-25T23:46:28.982Z,7.43
2022-10-25T23:48:56.063Z,7.53
2022-10-25T23:51:23.068Z,7.63
2022-10-25T23:53:50.387Z,7.13
2022-10-25T23:56:17.331Z,7.40
2022-10-25T23:58:44.388Z,7.10
